sensor_id;sensor_type;location;lat;lon;timestamp;P1;durP1;ratioP1;P2;durP2;ratioP2
12118;SDS011;6123;48.864;9.200;2022-07-03T00:01:35;2.97;;;2.67;;
12118;SDS011;6123;48.864;9.200;2022-07-03T00:04:01;2.70;;;2.50;;
12118;SDS011;6123;48.864;9.200;2022-07-03T00:06:27;3.38;;;2.78;;
12118;SDS011;6123;48.864;9.200;2022-07-03T00:08:52;4.93;;;2.53;;
12118;SDS011;6123;48.864;9.200;2022-07-03T00:11:19;2.22;;;2.10;;
12118;SDS011;6123;48.864;9.200;2022-07-03T00:13:45;2.40;;;2.20;;
12118;SDS011;6123;48.864;9.200;2022-07-03T00:16:11;2.42;;;2.22;;
12118;SDS011;6123;48.864;9.200;2022-07-03T00:18:39;2.85;;;2.20;;
12118;SDS011;6123;48.864;9.200;2022-07-03T00:21:05;3.88;;;2.80;;
12118;SDS011;6123;48.864;9.200;2022-07-03T00:23:40;3.35;;;2.50;;
12118;SDS011;6123;48.864;9.200;2022-07-03T00:26:11;3.80;;;2.85;;
12118;SDS011;6123;48.864;9.200;2022-07-03T00:28:41;2.97;;;2.70;;
12118;SDS011;6123;48.864;9.200;2022-07-03T00:31:09;3.60;;;3.30;;
12118;SDS011;6123;48.864;9.200;2022-07-03T00:33:38;2.75;;;2.50;;
12118;SDS011;6123;48.864;9.200;2022-07-03T00:36:05;3.15;;;2.85;;
12118;SDS011;6123;48.864;9.200;2022-07-03T00:38:31;3.15;;;2.85;;
12118;SDS011;6123;48.864;9.200;2022-07-03T00:41:00;4.00;;;3.20;;
12118;SDS011;6123;48.864;9.200;2022-07-03T00:43:29;3.67;;;2.75;;
12118;SDS011;6123;48.864;9.200;2022-07-03T00:45:55;3.78;;;3.45;;
12118;SDS011;6123;48.864;9.200;2022-07-03T00:48:31;3.10;;;2.80;;
12118;SDS011;6123;48.864;9.200;2022-07-03T00:51:05;3.13;;;2.90;;
12118;SDS011;6123;48.864;9.200;2022-07-03T00:53:32;3.78;;;2.70;;
12118;SDS011;6123;48.864;9.200;2022-07-03T00:56:00;2.75;;;2.53;;
12118;SDS011;6123;48.864;9.200;2022-07-03T00:58:29;2.95;;;2.75;;
12118;SDS011;6123;48.864;9.200;2022-07-03T01:00:59;3.10;;;2.50;;
12118;SDS011;6123;48.864;9.200;2022-07-03T01:03:25;2.80;;;2.55;;
12118;SDS011;6123;48.864;9.200;2022-07-03T01:05:53;2.97;;;2.78;;
12118;SDS011;6123;48.864;9.200;2022-07-03T01:24:56;3.28;;;3.00;;
12118;SDS011;6123;48.864;9.200;2022-07-03T01:30:37;4.75;;;3.45;;
12118;SDS011;6123;48.864;9.200;2022-07-03T01:33:16;3.25;;;2.95;;
12118;SDS011;6123;48.864;9.200;2022-07-03T01:38:20;3.65;;;3.03;;
12118;SDS011;6123;48.864;9.200;2022-07-03T01:40:46;3.08;;;2.80;;
12118;SDS011;6123;48.864;9.200;2022-07-03T01:43:15;5.18;;;3.35;;
12118;SDS011;6123;48.864;9.200;2022-07-03T01:45:49;3.40;;;3.13;;
12118;SDS011;6123;48.864;9.200;2022-07-03T01:48:16;3.20;;;3.00;;
12118;SDS011;6123;48.864;9.200;2022-07-03T01:50:44;3.33;;;3.10;;
12118;SDS011;6123;48.864;9.200;2022-07-03T01:53:11;3.55;;;3.08;;
12118;SDS011;6123;48.864;9.200;2022-07-03T01:55:39;3.80;;;3.22;;
12118;SDS011;6123;48.864;9.200;2022-07-03T01:58:09;3.20;;;2.90;;
12118;SDS011;6123;48.864;9.200;2022-07-03T02:00:40;3.38;;;3.10;;
12118;SDS011;6123;48.864;9.200;2022-07-03T02:03:11;3.40;;;3.10;;
12118;SDS011;6123;48.864;9.200;2022-07-03T02:05:46;3.50;;;3.03;;
12118;SDS011;6123;48.864;9.200;2022-07-03T02:08:33;3.88;;;3.40;;
12118;SDS011;6123;48.864;9.200;2022-07-03T02:11:14;3.45;;;3.15;;
12118;SDS011;6123;48.864;9.200;2022-07-03T02:13:49;3.38;;;3.05;;
12118;SDS011;6123;48.864;9.200;2022-07-03T02:16:18;3.67;;;3.38;;
12118;SDS011;6123;48.864;9.200;2022-07-03T02:18:49;4.25;;;3.28;;
12118;SDS011;6123;48.864;9.200;2022-07-03T02:21:33;3.05;;;2.75;;
12118;SDS011;6123;48.864;9.200;2022-07-03T02:24:18;3.20;;;3.00;;
12118;SDS011;6123;48.864;9.200;2022-07-03T02:26:53;3.40;;;2.95;;
12118;SDS011;6123;48.864;9.200;2022-07-03T02:29:32;3.45;;;3.15;;
12118;SDS011;6123;48.864;9.200;2022-07-03T02:32:10;3.95;;;3.10;;
12118;SDS011;6123;48.864;9.200;2022-07-03T02:34:38;3.90;;;3.25;;
12118;SDS011;6123;48.864;9.200;2022-07-03T02:37:15;3.20;;;2.65;;
12118;SDS011;6123;48.864;9.200;2022-07-03T02:42:30;3.42;;;3.13;;
12118;SDS011;6123;48.864;9.200;2022-07-03T02:45:03;3.20;;;2.90;;
12118;SDS011;6123;48.864;9.200;2022-07-03T02:50:05;3.20;;;2.80;;
12118;SDS011;6123;48.864;9.200;2022-07-03T03:04:38;4.03;;;3.33;;
12118;SDS011;6123;48.864;9.200;2022-07-03T03:06:47;3.25;;;3.00;;
12118;SDS011;6123;48.864;9.200;2022-07-03T03:09:34;3.50;;;3.00;;
12118;SDS011;6123;48.864;9.200;2022-07-03T03:12:08;3.30;;;3.00;;
12118;SDS011;6123;48.864;9.200;2022-07-03T03:14:38;3.33;;;2.90;;
12118;SDS011;6123;48.864;9.200;2022-07-03T03:17:09;5.35;;;3.20;;
12118;SDS011;6123;48.864;9.200;2022-07-03T03:19:41;3.78;;;3.20;;
12118;SDS011;6123;48.864;9.200;2022-07-03T03:25:19;3.78;;;3.20;;
12118;SDS011;6123;48.864;9.200;2022-07-03T03:27:45;3.10;;;2.90;;
12118;SDS011;6123;48.864;9.200;2022-07-03T03:30:11;3.08;;;2.75;;
12118;SDS011;6123;48.864;9.200;2022-07-03T03:32:37;2.90;;;2.70;;
12118;SDS011;6123;48.864;9.200;2022-07-03T03:35:06;5.13;;;2.97;;
12118;SDS011;6123;48.864;9.200;2022-07-03T03:37:33;3.10;;;2.80;;
12118;SDS011;6123;48.864;9.200;2022-07-03T03:40:04;3.30;;;3.00;;
12118;SDS011;6123;48.864;9.200;2022-07-03T03:42:33;3.97;;;3.58;;
12118;SDS011;6123;48.864;9.200;2022-07-03T03:44:59;3.60;;;3.28;;
12118;SDS011;6123;48.864;9.200;2022-07-03T03:47:24;4.40;;;3.40;;
12118;SDS011;6123;48.864;9.200;2022-07-03T03:49:50;3.70;;;3.40;;
12118;SDS011;6123;48.864;9.200;2022-07-03T03:52:18;3.30;;;3.00;;
12118;SDS011;6123;48.864;9.200;2022-07-03T03:54:44;4.07;;;3.65;;
12118;SDS011;6123;48.864;9.200;2022-07-03T03:59:45;3.90;;;3.50;;
12118;SDS011;6123;48.864;9.200;2022-07-03T04:02:11;3.83;;;3.10;;
12118;SDS011;6123;48.864;9.200;2022-07-03T04:04:37;3.38;;;2.92;;
12118;SDS011;6123;48.864;9.200;2022-07-03T04:07:03;3.90;;;3.40;;
12118;SDS011;6123;48.864;9.200;2022-07-03T04:09:29;3.67;;;3.10;;
12118;SDS011;6123;48.864;9.200;2022-07-03T04:11:55;3.53;;;3.22;;
12118;SDS011;6123;48.864;9.200;2022-07-03T04:14:21;3.53;;;3.25;;
12118;SDS011;6123;48.864;9.200;2022-07-03T04:16:49;3.65;;;3.00;;
12118;SDS011;6123;48.864;9.200;2022-07-03T04:19:15;3.85;;;3.40;;
12118;SDS011;6123;48.864;9.200;2022-07-03T04:21:40;3.67;;;3.38;;
12118;SDS011;6123;48.864;9.200;2022-07-03T04:24:09;5.28;;;3.30;;
12118;SDS011;6123;48.864;9.200;2022-07-03T04:26:37;3.58;;;3.28;;
12118;SDS011;6123;48.864;9.200;2022-07-03T04:29:03;3.88;;;3.22;;
12118;SDS011;6123;48.864;9.200;2022-07-03T04:31:33;3.47;;;3.15;;
12118;SDS011;6123;48.864;9.200;2022-07-03T04:33:59;3.22;;;3.03;;
12118;SDS011;6123;48.864;9.200;2022-07-03T04:36:26;3.40;;;3.10;;
12118;SDS011;6123;48.864;9.200;2022-07-03T04:38:53;3.80;;;3.45;;
12118;SDS011;6123;48.864;9.200;2022-07-03T04:41:19;3.17;;;2.88;;
12118;SDS011;6123;48.864;9.200;2022-07-03T04:43:45;2.90;;;2.67;;
12118;SDS011;6123;48.864;9.200;2022-07-03T04:46:10;3.40;;;2.60;;
12118;SDS011;6123;48.864;9.200;2022-07-03T04:48:38;5.32;;;3.03;;
12118;SDS011;6123;48.864;9.200;2022-07-03T04:51:04;6.95;;;2.80;;
12118;SDS011;6123;48.864;9.200;2022-07-03T04:53:29;3.08;;;2.78;;
12118;SDS011;6123;48.864;9.200;2022-07-03T04:55:55;3.65;;;2.85;;
12118;SDS011;6123;48.864;9.200;2022-07-03T04:58:20;3.13;;;2.83;;
12118;SDS011;6123;48.864;9.200;2022-07-03T05:00:46;3.03;;;2.78;;
12118;SDS011;6123;48.864;9.200;2022-07-03T05:03:12;3.47;;;2.80;;
12118;SDS011;6123;48.864;9.200;2022-07-03T05:05:38;4.70;;;3.10;;
12118;SDS011;6123;48.864;9.200;2022-07-03T05:08:04;4.53;;;2.92;;
12118;SDS011;6123;48.864;9.200;2022-07-03T05:10:30;3.33;;;2.80;;
12118;SDS011;6123;48.864;9.200;2022-07-03T05:12:56;3.33;;;2.78;;
12118;SDS011;6123;48.864;9.200;2022-07-03T05:15:21;3.58;;;2.53;;
12118;SDS011;6123;48.864;9.200;2022-07-03T05:17:48;5.03;;;2.65;;
12118;SDS011;6123;48.864;9.200;2022-07-03T05:20:16;2.70;;;2.50;;
12118;SDS011;6123;48.864;9.200;2022-07-03T05:22:57;4.53;;;2.63;;
12118;SDS011;6123;48.864;9.200;2022-07-03T05:25:25;3.05;;;2.78;;
12118;SDS011;6123;48.864;9.200;2022-07-03T05:27:55;3.58;;;2.85;;
12118;SDS011;6123;48.864;9.200;2022-07-03T05:30:22;3.08;;;2.70;;
12118;SDS011;6123;48.864;9.200;2022-07-03T05:32:49;2.60;;;2.40;;
12118;SDS011;6123;48.864;9.200;2022-07-03T05:35:15;2.70;;;2.50;;
12118;SDS011;6123;48.864;9.200;2022-07-03T05:37:42;4.00;;;2.60;;
12118;SDS011;6123;48.864;9.200;2022-07-03T05:40:09;2.60;;;2.40;;
12118;SDS011;6123;48.864;9.200;2022-07-03T05:42:36;4.90;;;2.78;;
12118;SDS011;6123;48.864;9.200;2022-07-03T05:45:04;3.08;;;2.88;;
12118;SDS011;6123;48.864;9.200;2022-07-03T05:47:30;2.70;;;2.50;;
12118;SDS011;6123;48.864;9.200;2022-07-03T05:49:56;2.85;;;2.42;;
12118;SDS011;6123;48.864;9.200;2022-07-03T05:52:21;3.92;;;2.45;;
12118;SDS011;6123;48.864;9.200;2022-07-03T05:54:47;2.55;;;2.35;;
12118;SDS011;6123;48.864;9.200;2022-07-03T05:57:13;2.67;;;2.25;;
12118;SDS011;6123;48.864;9.200;2022-07-03T05:59:39;3.28;;;2.30;;
12118;SDS011;6123;48.864;9.200;2022-07-03T06:02:04;2.65;;;2.45;;
12118;SDS011;6123;48.864;9.200;2022-07-03T06:04:35;2.72;;;2.53;;
12118;SDS011;6123;48.864;9.200;2022-07-03T06:07:00;2.60;;;2.35;;
12118;SDS011;6123;48.864;9.200;2022-07-03T06:09:26;2.60;;;2.40;;
12118;SDS011;6123;48.864;9.200;2022-07-03T06:11:54;2.30;;;2.10;;
12118;SDS011;6123;48.864;9.200;2022-07-03T06:14:19;3.38;;;2.90;;
12118;SDS011;6123;48.864;9.200;2022-07-03T06:16:45;2.60;;;2.40;;
12118;SDS011;6123;48.864;9.200;2022-07-03T06:19:11;2.42;;;2.22;;
12118;SDS011;6123;48.864;9.200;2022-07-03T06:21:36;3.50;;;2.80;;
12118;SDS011;6123;48.864;9.200;2022-07-03T06:24:02;2.47;;;2.35;;
12118;SDS011;6123;48.864;9.200;2022-07-03T06:26:28;2.10;;;2.00;;
12118;SDS011;6123;48.864;9.200;2022-07-03T06:28:56;2.47;;;2.28;;
12118;SDS011;6123;48.864;9.200;2022-07-03T06:31:22;2.38;;;2.28;;
12118;SDS011;6123;48.864;9.200;2022-07-03T06:33:48;2.30;;;2.20;;
12118;SDS011;6123;48.864;9.200;2022-07-03T06:36:13;2.20;;;2.00;;
12118;SDS011;6123;48.864;9.200;2022-07-03T06:38:39;2.05;;;1.92;;
12118;SDS011;6123;48.864;9.200;2022-07-03T06:41:04;2.05;;;1.95;;
12118;SDS011;6123;48.864;9.200;2022-07-03T06:43:30;2.30;;;2.13;;
12118;SDS011;6123;48.864;9.200;2022-07-03T06:45:56;2.25;;;2.08;;
12118;SDS011;6123;48.864;9.200;2022-07-03T06:48:21;6.85;;;2.33;;
12118;SDS011;6123;48.864;9.200;2022-07-03T06:50:47;3.38;;;1.90;;
12118;SDS011;6123;48.864;9.200;2022-07-03T06:53:13;2.30;;;2.10;;
12118;SDS011;6123;48.864;9.200;2022-07-03T06:55:38;2.33;;;2.13;;
12118;SDS011;6123;48.864;9.200;2022-07-03T06:58:04;2.80;;;2.28;;
12118;SDS011;6123;48.864;9.200;2022-07-03T07:00:32;3.30;;;2.20;;
12118;SDS011;6123;48.864;9.200;2022-07-03T07:02:58;2.10;;;1.90;;
12118;SDS011;6123;48.864;9.200;2022-07-03T07:05:24;2.55;;;2.35;;
12118;SDS011;6123;48.864;9.200;2022-07-03T07:07:49;3.08;;;2.45;;
12118;SDS011;6123;48.864;9.200;2022-07-03T07:10:15;2.50;;;2.05;;
12118;SDS011;6123;48.864;9.200;2022-07-03T07:12:40;2.83;;;2.10;;
12118;SDS011;6123;48.864;9.200;2022-07-03T07:15:06;4.03;;;1.90;;
12118;SDS011;6123;48.864;9.200;2022-07-03T07:17:32;4.95;;;2.20;;
12118;SDS011;6123;48.864;9.200;2022-07-03T07:20:00;2.20;;;2.00;;
12118;SDS011;6123;48.864;9.200;2022-07-03T07:22:26;2.30;;;2.10;;
12118;SDS011;6123;48.864;9.200;2022-07-03T07:24:52;3.28;;;1.90;;
12118;SDS011;6123;48.864;9.200;2022-07-03T07:27:18;2.17;;;2.08;;
12118;SDS011;6123;48.864;9.200;2022-07-03T07:29:44;3.13;;;1.90;;
12118;SDS011;6123;48.864;9.200;2022-07-03T07:32:10;2.30;;;2.10;;
12118;SDS011;6123;48.864;9.200;2022-07-03T07:34:38;1.90;;;1.80;;
12118;SDS011;6123;48.864;9.200;2022-07-03T07:37:06;2.63;;;2.08;;
12118;SDS011;6123;48.864;9.200;2022-07-03T07:39:32;2.10;;;2.00;;
12118;SDS011;6123;48.864;9.200;2022-07-03T07:41:58;2.33;;;2.13;;
12118;SDS011;6123;48.864;9.200;2022-07-03T07:44:25;1.90;;;1.80;;
12118;SDS011;6123;48.864;9.200;2022-07-03T07:46:53;2.17;;;2.08;;
12118;SDS011;6123;48.864;9.200;2022-07-03T07:49:19;2.22;;;2.03;;
12118;SDS011;6123;48.864;9.200;2022-07-03T07:51:45;7.30;;;6.57;;
12118;SDS011;6123;48.864;9.200;2022-07-03T07:54:10;3.63;;;3.33;;
12118;SDS011;6123;48.864;9.200;2022-07-03T07:56:36;2.67;;;2.47;;
12118;SDS011;6123;48.864;9.200;2022-07-03T07:59:02;2.20;;;2.00;;
12118;SDS011;6123;48.864;9.200;2022-07-03T08:01:27;2.00;;;1.90;;
12118;SDS011;6123;48.864;9.200;2022-07-03T08:04:11;4.38;;;4.00;;
12118;SDS011;6123;48.864;9.200;2022-07-03T08:06:58;2.15;;;2.00;;
12118;SDS011;6123;48.864;9.200;2022-07-03T08:09:26;2.03;;;1.85;;
12118;SDS011;6123;48.864;9.200;2022-07-03T08:11:52;1.90;;;1.80;;
12118;SDS011;6123;48.864;9.200;2022-07-03T08:14:20;1.83;;;1.73;;
12118;SDS011;6123;48.864;9.200;2022-07-03T08:16:45;3.70;;;2.20;;
12118;SDS011;6123;48.864;9.200;2022-07-03T08:19:11;2.33;;;1.88;;
12118;SDS011;6123;48.864;9.200;2022-07-03T08:21:37;3.08;;;2.72;;
12118;SDS011;6123;48.864;9.200;2022-07-03T08:24:03;1.70;;;1.55;;
12118;SDS011;6123;48.864;9.200;2022-07-03T08:26:31;2.33;;;2.13;;
12118;SDS011;6123;48.864;9.200;2022-07-03T08:28:57;4.43;;;1.95;;
12118;SDS011;6123;48.864;9.200;2022-07-03T08:31:22;3.90;;;1.77;;
12118;SDS011;6123;48.864;9.200;2022-07-03T08:33:48;2.88;;;1.63;;
12118;SDS011;6123;48.864;9.200;2022-07-03T08:36:16;1.60;;;1.50;;
12118;SDS011;6123;48.864;9.200;2022-07-03T08:38:42;1.63;;;1.45;;
12118;SDS011;6123;48.864;9.200;2022-07-03T08:41:07;1.20;;;1.10;;
12118;SDS011;6123;48.864;9.200;2022-07-03T08:43:36;1.30;;;1.13;;
12118;SDS011;6123;48.864;9.200;2022-07-03T08:46:04;1.33;;;1.23;;
12118;SDS011;6123;48.864;9.200;2022-07-03T08:48:33;2.00;;;1.42;;
12118;SDS011;6123;48.864;9.200;2022-07-03T08:51:01;2.00;;;1.38;;
12118;SDS011;6123;48.864;9.200;2022-07-03T08:53:30;1.38;;;1.10;;
12118;SDS011;6123;48.864;9.200;2022-07-03T08:55:56;2.63;;;1.40;;
12118;SDS011;6123;48.864;9.200;2022-07-03T08:58:22;1.30;;;1.20;;
12118;SDS011;6123;48.864;9.200;2022-07-03T09:00:48;2.35;;;1.00;;
12118;SDS011;6123;48.864;9.200;2022-07-03T09:03:16;1.50;;;1.40;;
12118;SDS011;6123;48.864;9.200;2022-07-03T09:05:47;2.05;;;1.25;;
12118;SDS011;6123;48.864;9.200;2022-07-03T09:08:14;2.78;;;1.30;;
12118;SDS011;6123;48.864;9.200;2022-07-03T09:10:41;1.50;;;0.93;;
12118;SDS011;6123;48.864;9.200;2022-07-03T09:13:10;1.17;;;1.08;;
12118;SDS011;6123;48.864;9.200;2022-07-03T09:15:38;2.88;;;1.13;;
12118;SDS011;6123;48.864;9.200;2022-07-03T09:18:07;4.03;;;1.20;;
12118;SDS011;6123;48.864;9.200;2022-07-03T09:20:37;1.63;;;1.00;;
12118;SDS011;6123;48.864;9.200;2022-07-03T09:23:11;1.77;;;0.95;;
12118;SDS011;6123;48.864;9.200;2022-07-03T09:28:24;1.85;;;1.25;;
12118;SDS011;6123;48.864;9.200;2022-07-03T09:31:09;1.15;;;0.88;;
12118;SDS011;6123;48.864;9.200;2022-07-03T09:33:47;0.75;;;0.75;;
12118;SDS011;6123;48.864;9.200;2022-07-03T09:36:37;3.72;;;1.77;;
12118;SDS011;6123;48.864;9.200;2022-07-03T09:39:13;1.98;;;1.10;;
12118;SDS011;6123;48.864;9.200;2022-07-03T09:44:42;1.17;;;0.77;;
12118;SDS011;6123;48.864;9.200;2022-07-03T09:52:30;0.93;;;0.93;;
12118;SDS011;6123;48.864;9.200;2022-07-03T09:57:33;2.05;;;1.20;;
12118;SDS011;6123;48.864;9.200;2022-07-03T10:02:36;1.52;;;1.40;;
12118;SDS011;6123;48.864;9.200;2022-07-03T10:10:21;1.63;;;0.95;;
12118;SDS011;6123;48.864;9.200;2022-07-03T10:12:50;1.38;;;1.27;;
12118;SDS011;6123;48.864;9.200;2022-07-03T10:15:16;1.20;;;1.20;;
12118;SDS011;6123;48.864;9.200;2022-07-03T10:17:43;3.00;;;1.33;;
12118;SDS011;6123;48.864;9.200;2022-07-03T10:20:13;4.22;;;2.92;;
12118;SDS011;6123;48.864;9.200;2022-07-03T10:22:41;2.33;;;2.13;;
12118;SDS011;6123;48.864;9.200;2022-07-03T10:25:10;1.88;;;1.50;;
12118;SDS011;6123;48.864;9.200;2022-07-03T10:27:41;1.73;;;1.45;;
12118;SDS011;6123;48.864;9.200;2022-07-03T10:30:11;1.70;;;1.60;;
12118;SDS011;6123;48.864;9.200;2022-07-03T10:32:41;1.15;;;1.02;;
12118;SDS011;6123;48.864;9.200;2022-07-03T10:35:45;1.38;;;1.30;;
12118;SDS011;6123;48.864;9.200;2022-07-03T10:43:48;2.28;;;1.48;;
12118;SDS011;6123;48.864;9.200;2022-07-03T10:46:35;1.02;;;0.98;;
12118;SDS011;6123;48.864;9.200;2022-07-03T10:54:19;1.50;;;1.20;;
12118;SDS011;6123;48.864;9.200;2022-07-03T11:05:11;1.35;;;1.33;;
12118;SDS011;6123;48.864;9.200;2022-07-03T11:13:04;1.05;;;1.05;;
12118;SDS011;6123;48.864;9.200;2022-07-03T11:23:06;1.38;;;1.25;;
12118;SDS011;6123;48.864;9.200;2022-07-03T11:25:39;1.65;;;1.27;;
12118;SDS011;6123;48.864;9.200;2022-07-03T11:28:05;1.20;;;1.20;;
12118;SDS011;6123;48.864;9.200;2022-07-03T11:30:31;1.02;;;1.02;;
12118;SDS011;6123;48.864;9.200;2022-07-03T11:32:58;2.00;;;1.45;;
12118;SDS011;6123;48.864;9.200;2022-07-03T11:35:46;1.30;;;1.20;;
12118;SDS011;6123;48.864;9.200;2022-07-03T11:38:13;5.10;;;1.55;;
12118;SDS011;6123;48.864;9.200;2022-07-03T11:40:43;1.40;;;1.30;;
12118;SDS011;6123;48.864;9.200;2022-07-03T11:43:10;3.10;;;1.38;;
12118;SDS011;6123;48.864;9.200;2022-07-03T11:45:37;1.30;;;1.20;;
12118;SDS011;6123;48.864;9.200;2022-07-03T11:48:08;2.50;;;1.45;;
12118;SDS011;6123;48.864;9.200;2022-07-03T11:50:42;1.50;;;1.30;;
12118;SDS011;6123;48.864;9.200;2022-07-03T11:58:24;1.63;;;1.30;;
12118;SDS011;6123;48.864;9.200;2022-07-03T12:00:53;4.35;;;1.50;;
12118;SDS011;6123;48.864;9.200;2022-07-03T12:03:25;1.33;;;1.25;;
12118;SDS011;6123;48.864;9.200;2022-07-03T12:08:22;1.77;;;0.90;;
12118;SDS011;6123;48.864;9.200;2022-07-03T12:10:49;2.17;;;1.27;;
12118;SDS011;6123;48.864;9.200;2022-07-03T12:13:21;1.73;;;1.33;;
12118;SDS011;6123;48.864;9.200;2022-07-03T12:15:48;1.35;;;1.00;;
12118;SDS011;6123;48.864;9.200;2022-07-03T12:18:16;4.25;;;1.30;;
12118;SDS011;6123;48.864;9.200;2022-07-03T12:20:42;1.40;;;1.30;;
12118;SDS011;6123;48.864;9.200;2022-07-03T12:23:07;1.17;;;1.10;;
12118;SDS011;6123;48.864;9.200;2022-07-03T12:25:40;2.22;;;1.40;;
12118;SDS011;6123;48.864;9.200;2022-07-03T12:28:06;1.50;;;1.40;;
12118;SDS011;6123;48.864;9.200;2022-07-03T12:30:34;1.48;;;1.23;;
12118;SDS011;6123;48.864;9.200;2022-07-03T12:33:04;1.73;;;1.02;;
12118;SDS011;6123;48.864;9.200;2022-07-03T12:35:31;1.40;;;1.30;;
12118;SDS011;6123;48.864;9.200;2022-07-03T12:37:56;2.85;;;1.30;;
12118;SDS011;6123;48.864;9.200;2022-07-03T12:40:22;1.20;;;1.10;;
12118;SDS011;6123;48.864;9.200;2022-07-03T12:42:49;1.10;;;1.10;;
12118;SDS011;6123;48.864;9.200;2022-07-03T12:45:21;4.00;;;1.40;;
12118;SDS011;6123;48.864;9.200;2022-07-03T12:48:00;2.03;;;0.90;;
12118;SDS011;6123;48.864;9.200;2022-07-03T12:50:47;2.40;;;1.33;;
12118;SDS011;6123;48.864;9.200;2022-07-03T12:53:29;3.03;;;1.20;;
12118;SDS011;6123;48.864;9.200;2022-07-03T12:56:03;1.52;;;1.23;;
12118;SDS011;6123;48.864;9.200;2022-07-03T12:58:39;1.33;;;1.00;;
12118;SDS011;6123;48.864;9.200;2022-07-03T13:01:28;2.28;;;1.20;;
12118;SDS011;6123;48.864;9.200;2022-07-03T13:03:55;2.45;;;1.23;;
12118;SDS011;6123;48.864;9.200;2022-07-03T13:06:21;1.42;;;1.27;;
12118;SDS011;6123;48.864;9.200;2022-07-03T13:09:01;1.40;;;1.30;;
12118;SDS011;6123;48.864;9.200;2022-07-03T13:11:35;2.33;;;1.10;;
12118;SDS011;6123;48.864;9.200;2022-07-03T13:14:14;1.45;;;1.23;;
12118;SDS011;6123;48.864;9.200;2022-07-03T13:16:45;2.38;;;1.30;;
12118;SDS011;6123;48.864;9.200;2022-07-03T13:19:13;1.67;;;1.10;;
12118;SDS011;6123;48.864;9.200;2022-07-03T13:21:39;1.77;;;1.40;;
12118;SDS011;6123;48.864;9.200;2022-07-03T13:24:08;1.10;;;1.10;;
12118;SDS011;6123;48.864;9.200;2022-07-03T13:26:34;1.52;;;1.08;;
12118;SDS011;6123;48.864;9.200;2022-07-03T13:28:59;3.25;;;1.30;;
12118;SDS011;6123;48.864;9.200;2022-07-03T13:31:25;1.23;;;1.13;;
12118;SDS011;6123;48.864;9.200;2022-07-03T13:33:51;2.45;;;1.38;;
12118;SDS011;6123;48.864;9.200;2022-07-03T13:36:17;2.22;;;1.30;;
12118;SDS011;6123;48.864;9.200;2022-07-03T13:38:43;1.65;;;1.40;;
12118;SDS011;6123;48.864;9.200;2022-07-03T13:41:10;2.10;;;1.35;;
12118;SDS011;6123;48.864;9.200;2022-07-03T13:43:38;2.03;;;1.10;;
12118;SDS011;6123;48.864;9.200;2022-07-03T13:46:04;2.08;;;1.50;;
12118;SDS011;6123;48.864;9.200;2022-07-03T13:48:31;1.55;;;1.42;;
12118;SDS011;6123;48.864;9.200;2022-07-03T13:50:57;1.90;;;1.20;;
12118;SDS011;6123;48.864;9.200;2022-07-03T13:53:23;2.25;;;1.20;;
12118;SDS011;6123;48.864;9.200;2022-07-03T13:55:48;1.40;;;1.27;;
12118;SDS011;6123;48.864;9.200;2022-07-03T13:58:14;1.63;;;1.17;;
12118;SDS011;6123;48.864;9.200;2022-07-03T14:00:40;1.30;;;1.30;;
12118;SDS011;6123;48.864;9.200;2022-07-03T14:03:05;1.50;;;1.30;;
12118;SDS011;6123;48.864;9.200;2022-07-03T14:05:34;1.75;;;1.45;;
12118;SDS011;6123;48.864;9.200;2022-07-03T14:08:00;1.30;;;1.20;;
12118;SDS011;6123;48.864;9.200;2022-07-03T14:10:25;1.50;;;1.25;;
12118;SDS011;6123;48.864;9.200;2022-07-03T14:12:51;1.38;;;1.27;;
12118;SDS011;6123;48.864;9.200;2022-07-03T14:15:17;1.90;;;1.20;;
12118;SDS011;6123;48.864;9.200;2022-07-03T14:17:43;1.92;;;1.83;;
12118;SDS011;6123;48.864;9.200;2022-07-03T14:20:09;1.55;;;1.45;;
12118;SDS011;6123;48.864;9.200;2022-07-03T14:22:37;1.30;;;1.30;;
12118;SDS011;6123;48.864;9.200;2022-07-03T14:25:06;1.55;;;1.45;;
12118;SDS011;6123;48.864;9.200;2022-07-03T14:27:32;2.03;;;1.40;;
12118;SDS011;6123;48.864;9.200;2022-07-03T14:30:16;1.40;;;1.30;;
12118;SDS011;6123;48.864;9.200;2022-07-03T14:33:00;1.42;;;1.17;;
12118;SDS011;6123;48.864;9.200;2022-07-03T14:35:26;1.25;;;1.25;;
12118;SDS011;6123;48.864;9.200;2022-07-03T14:37:52;1.30;;;1.20;;
12118;SDS011;6123;48.864;9.200;2022-07-03T14:40:17;4.93;;;1.50;;
12118;SDS011;6123;48.864;9.200;2022-07-03T14:42:43;4.32;;;1.75;;
12118;SDS011;6123;48.864;9.200;2022-07-03T14:45:09;2.40;;;1.30;;
12118;SDS011;6123;48.864;9.200;2022-07-03T14:47:34;2.17;;;1.40;;
12118;SDS011;6123;48.864;9.200;2022-07-03T14:50:00;1.60;;;1.40;;
12118;SDS011;6123;48.864;9.200;2022-07-03T14:52:26;4.32;;;1.60;;
12118;SDS011;6123;48.864;9.200;2022-07-03T14:54:56;1.27;;;1.17;;
12118;SDS011;6123;48.864;9.200;2022-07-03T14:57:26;3.33;;;1.10;;
12118;SDS011;6123;48.864;9.200;2022-07-03T15:00:15;2.08;;;1.42;;
12118;SDS011;6123;48.864;9.200;2022-07-03T15:05:11;1.95;;;1.30;;
12118;SDS011;6123;48.864;9.200;2022-07-03T15:10:13;2.13;;;1.15;;
12118;SDS011;6123;48.864;9.200;2022-07-03T15:12:50;1.80;;;1.20;;
12118;SDS011;6123;48.864;9.200;2022-07-03T15:15:22;2.97;;;1.25;;
12118;SDS011;6123;48.864;9.200;2022-07-03T15:17:50;1.45;;;1.10;;
12118;SDS011;6123;48.864;9.200;2022-07-03T15:20:17;1.20;;;1.20;;
12118;SDS011;6123;48.864;9.200;2022-07-03T15:22:46;2.92;;;1.50;;
12118;SDS011;6123;48.864;9.200;2022-07-03T15:25:16;1.90;;;1.23;;
12118;SDS011;6123;48.864;9.200;2022-07-03T15:27:44;1.80;;;1.17;;
12118;SDS011;6123;48.864;9.200;2022-07-03T15:30:15;1.45;;;1.17;;
12118;SDS011;6123;48.864;9.200;2022-07-03T15:32:42;1.30;;;1.20;;
12118;SDS011;6123;48.864;9.200;2022-07-03T15:35:11;2.05;;;1.23;;
12118;SDS011;6123;48.864;9.200;2022-07-03T15:37:47;1.30;;;1.20;;
12118;SDS011;6123;48.864;9.200;2022-07-03T15:40:23;1.25;;;1.15;;
12118;SDS011;6123;48.864;9.200;2022-07-03T15:51:55;1.42;;;1.33;;
12118;SDS011;6123;48.864;9.200;2022-07-03T15:54:35;1.20;;;1.10;;
12118;SDS011;6123;48.864;9.200;2022-07-03T15:57:07;1.40;;;1.30;;
12118;SDS011;6123;48.864;9.200;2022-07-03T15:59:45;2.40;;;1.35;;
12118;SDS011;6123;48.864;9.200;2022-07-03T16:02:16;1.60;;;1.50;;
12118;SDS011;6123;48.864;9.200;2022-07-03T16:05:05;2.15;;;1.38;;
12118;SDS011;6123;48.864;9.200;2022-07-03T16:07:35;1.33;;;1.23;;
12118;SDS011;6123;48.864;9.200;2022-07-03T16:10:08;1.48;;;1.35;;
12118;SDS011;6123;48.864;9.200;2022-07-03T16:12:37;2.65;;;1.30;;
12118;SDS011;6123;48.864;9.200;2022-07-03T16:15:09;2.05;;;1.77;;
12118;SDS011;6123;48.864;9.200;2022-07-03T16:17:35;2.00;;;1.33;;
12118;SDS011;6123;48.864;9.200;2022-07-03T16:20:02;1.35;;;1.25;;
12118;SDS011;6123;48.864;9.200;2022-07-03T16:22:33;4.53;;;2.25;;
12118;SDS011;6123;48.864;9.200;2022-07-03T16:25:00;4.95;;;1.63;;
12118;SDS011;6123;48.864;9.200;2022-07-03T16:27:27;1.38;;;1.27;;
12118;SDS011;6123;48.864;9.200;2022-07-03T16:29:54;2.25;;;1.80;;
12118;SDS011;6123;48.864;9.200;2022-07-03T16:32:20;1.20;;;1.10;;
12118;SDS011;6123;48.864;9.200;2022-07-03T16:37:37;2.65;;;1.50;;
12118;SDS011;6123;48.864;9.200;2022-07-03T16:40:13;1.65;;;1.35;;
12118;SDS011;6123;48.864;9.200;2022-07-03T16:42:42;1.40;;;1.10;;
12118;SDS011;6123;48.864;9.200;2022-07-03T16:45:09;2.42;;;1.42;;
12118;SDS011;6123;48.864;9.200;2022-07-03T16:47:42;2.40;;;1.17;;
12118;SDS011;6123;48.864;9.200;2022-07-03T16:50:17;1.40;;;1.30;;
12118;SDS011;6123;48.864;9.200;2022-07-03T16:52:51;1.50;;;1.40;;
12118;SDS011;6123;48.864;9.200;2022-07-03T16:55:20;2.75;;;1.52;;
12118;SDS011;6123;48.864;9.200;2022-07-03T16:57:48;1.80;;;1.60;;
12118;SDS011;6123;48.864;9.200;2022-07-03T17:00:17;1.77;;;1.63;;
12118;SDS011;6123;48.864;9.200;2022-07-03T17:02:44;2.85;;;1.50;;
12118;SDS011;6123;48.864;9.200;2022-07-03T17:05:11;2.72;;;1.60;;
12118;SDS011;6123;48.864;9.200;2022-07-03T17:07:40;3.33;;;1.52;;
12118;SDS011;6123;48.864;9.200;2022-07-03T17:10:08;1.30;;;1.20;;
12118;SDS011;6123;48.864;9.200;2022-07-03T17:12:40;4.63;;;1.88;;
12118;SDS011;6123;48.864;9.200;2022-07-03T17:15:08;3.38;;;1.50;;